Time,TemperatureF,DewpointF,PressureIn,WindDirection,WindDirectionDegrees,WindSpeedMPH,WindSpeedGustMPH,Humidity,HourlyPrecipIn,Conditions,Clouds,dailyrainin,SoftwareType,DateUTC
2013-10-13 00:02:00,36.9,27.7,30.10,WSW,241,1.0,7.0,69,0.00,,,0.00,meteohub,2013-10-13 06:02:00,
2013-10-13 00:07:00,36.3,26.8,30.10,SSW,195,0.0,7.0,68,0.00,,,0.00,meteohub,2013-10-13 06:07:00,
2013-10-13 00:12:00,36.0,25.7,30.10,SSE,168,3.0,3.0,66,0.00,,,0.00,meteohub,2013-10-13 06:12:00,
2013-10-13 00:17:00,36.0,26.1,30.11,South,178,2.0,5.0,67,0.00,,,0.00,meteohub,2013-10-13 06:17:00,
2013-10-13 00:22:00,36.0,25.7,30.11,South,173,2.0,5.0,66,0.00,,,0.00,meteohub,2013-10-13 06:22:00,
2013-10-13 00:27:00,36.1,26.6,30.10,South,179,4.0,5.0,68,0.00,,,0.00,meteohub,2013-10-13 06:27:00,
2013-10-13 00:32:00,36.1,26.6,30.11,SSW,207,4.0,5.0,68,0.00,,,0.00,meteohub,2013-10-13 06:32:00,
2013-10-13 00:37:00,36.3,26.8,30.11,SW,214,3.0,5.0,68,0.00,,,0.00,meteohub,2013-10-13 06:37:00,
2013-10-13 00:42:00,36.7,26.4,30.11,SE,143,3.0,6.0,66,0.00,,,0.00,meteohub,2013-10-13 06:42:00,
2013-10-13 00:47:00,37.0,26.1,30.11,South,177,3.0,8.0,64,0.00,,,0.00,meteohub,2013-10-13 06:47:00,
2013-10-13 00:52:00,37.6,25.7,30.11,South,172,8.0,8.0,62,0.00,,,0.00,meteohub,2013-10-13 06:52:00,
2013-10-13 00:57:00,37.9,25.0,30.11,SE,144,3.0,10.0,59,0.00,,,0.00,meteohub,2013-10-13 06:57:00,
2013-10-13 01:02:00,38.1,25.0,30.11,SSW,201,5.0,11.0,59,0.00,,,0.00,meteohub,2013-10-13 07:02:00,
2013-10-13 01:07:00,37.8,25.2,30.11,SSE,159,2.0,11.0,60,0.00,,,0.00,meteohub,2013-10-13 07:07:00,
2013-10-13 01:12:00,37.4,25.2,30.11,SSE,163,2.0,9.0,61,0.00,,,0.00,meteohub,2013-10-13 07:12:00,
2013-10-13 01:17:00,37.2,25.0,30.12,South,186,3.0,6.0,61,0.00,,,0.00,meteohub,2013-10-13 07:17:00,
2013-10-13 01:22:00,37.6,25.3,30.12,SSE,163,3.0,5.0,61,0.00,,,0.00,meteohub,2013-10-13 07:22:00,
2013-10-13 01:27:00,37.6,26.1,30.12,SSE,156,2.0,5.0,63,0.00,,,0.00,meteohub,2013-10-13 07:27:00,
2013-10-13 01:32:00,37.2,27.3,30.12,SE,139,1.0,5.0,67,0.00,,,0.00,meteohub,2013-10-13 07:32:00,
2013-10-13 01:37:00,37.0,27.9,30.12,SE,140,2.0,4.0,69,0.00,,,0.00,meteohub,2013-10-13 07:37:00,
2013-10-13 01:42:00,37.2,28.0,30.12,SE,142,2.0,4.0,69,0.00,,,0.00,meteohub,2013-10-13 07:42:00,
2013-10-13 01:47:00,37.6,27.7,30.12,SE,133,1.0,3.0,67,0.00,,,0.00,meteohub,2013-10-13 07:47:00,
2013-10-13 01:52:00,37.6,27.0,30.12,SE,138,2.0,4.0,65,0.00,,,0.00,meteohub,2013-10-13 07:52:00,
2013-10-13 01:57:00,37.9,26.4,30.12,SE,134,2.0,4.0,63,0.00,,,0.00,meteohub,2013-10-13 07:57:00,
2013-10-13 02:02:00,38.3,26.1,30.12,SE,124,2.0,4.0,61,0.00,,,0.00,meteohub,2013-10-13 08:02:00,
2013-10-13 02:07:00,38.8,26.1,30.12,SE,144,2.0,5.0,60,0.00,,,0.00,meteohub,2013-10-13 08:07:00,
2013-10-13 02:12:00,39.2,26.1,30.12,ESE,118,3.0,5.0,59,0.00,,,0.00,meteohub,2013-10-13 08:12:00,
2013-10-13 02:17:00,39.2,26.1,30.12,SE,144,4.0,5.0,59,0.00,,,0.00,meteohub,2013-10-13 08:17:00,
2013-10-13 02:22:00,38.8,26.1,30.12,ESE,121,2.0,5.0,60,0.00,,,0.00,meteohub,2013-10-13 08:22:00,
2013-10-13 02:27:00,38.5,25.9,30.12,ESE,112,0.0,5.0,60,0.00,,,0.00,meteohub,2013-10-13 08:27:00,
2013-10-13 02:32:00,37.2,25.7,30.12,North,357,2.0,5.0,63,0.00,,,0.00,meteohub,2013-10-13 08:32:00,
2013-10-13 02:37:00,35.4,25.5,30.12,North,1,1.0,5.0,67,0.00,,,0.00,meteohub,2013-10-13 08:37:00,
2013-10-13 02:42:00,34.9,25.7,30.12,NNW,330,2.0,4.0,69,0.00,,,0.00,meteohub,2013-10-13 08:42:00,
2013-10-13 02:47:00,34.5,25.3,30.11,NNW,330,1.0,3.0,69,0.00,,,0.00,meteohub,2013-10-13 08:47:00,
2013-10-13 02:52:00,34.3,25.5,30.11,NNW,336,1.0,2.0,70,0.00,,,0.00,meteohub,2013-10-13 08:52:00,
2013-10-13 02:57:00,34.3,25.5,30.11,NNW,336,0.0,3.0,70,0.00,,,0.00,meteohub,2013-10-13 08:57:00,
2013-10-13 03:02:00,34.3,25.5,30.11,NNW,336,2.0,3.0,70,0.00,,,0.00,meteohub,2013-10-13 09:02:00,
2013-10-13 03:07:00,34.0,25.5,30.11,NNW,345,2.0,2.0,71,0.00,,,0.00,meteohub,2013-10-13 09:07:00,
2013-10-13 03:12:00,33.4,25.7,30.11,NW,324,1.0,4.0,73,0.00,,,0.00,meteohub,2013-10-13 09:12:00,
2013-10-13 03:17:00,33.3,25.9,30.11,NW,326,1.0,4.0,74,0.00,,,0.00,meteohub,2013-10-13 09:17:00,
2013-10-13 03:22:00,33.4,26.1,30.11,WNW,291,2.0,4.0,74,0.00,,,0.00,meteohub,2013-10-13 09:22:00,
2013-10-13 03:27:00,33.6,25.9,30.11,WNW,288,0.0,3.0,73,0.00,,,0.00,meteohub,2013-10-13 09:27:00,
2013-10-13 03:32:00,34.0,26.2,30.11,WNW,283,1.0,2.0,73,0.00,,,0.00,meteohub,2013-10-13 09:32:00,
2013-10-13 03:37:00,34.3,26.6,30.11,NW,318,2.0,3.0,73,0.00,,,0.00,meteohub,2013-10-13 09:37:00,
2013-10-13 03:42:00,34.5,25.7,30.11,NW,319,1.0,3.0,70,0.00,,,0.00,meteohub,2013-10-13 09:42:00,
2013-10-13 03:47:00,34.5,26.1,30.10,NW,319,1.0,2.0,71,0.00,,,0.00,meteohub,2013-10-13 09:47:00,
2013-10-13 03:52:00,34.7,25.9,30.10,WNW,297,0.0,4.0,70,0.00,,,0.00,meteohub,2013-10-13 09:52:00,
2013-10-13 03:57:00,34.9,26.1,30.10,WNW,285,3.0,4.0,70,0.00,,,0.00,meteohub,2013-10-13 09:57:00,
2013-10-13 04:02:00,35.2,26.1,30.11,NNW,330,0.0,4.0,69,0.00,,,0.00,meteohub,2013-10-13 10:02:00,
2013-10-13 04:07:00,35.8,25.9,30.10,SSW,210,0.0,4.0,67,0.00,,,0.00,meteohub,2013-10-13 10:07:00,
2013-10-13 04:12:00,36.3,26.1,30.10,South,178,0.0,4.0,66,0.00,,,0.00,meteohub,2013-10-13 10:12:00,
2013-10-13 04:17:00,36.7,26.1,30.10,South,179,0.0,2.0,65,0.00,,,0.00,meteohub,2013-10-13 10:17:00,
2013-10-13 04:22:00,36.3,25.7,30.10,South,179,0.0,1.0,65,0.00,,,0.00,meteohub,2013-10-13 10:22:00,
2013-10-13 04:27:00,36.7,26.4,30.10,ESE,118,0.0,1.0,66,0.00,,,0.00,meteohub,2013-10-13 10:27:00,
2013-10-13 04:32:00,37.6,27.0,30.10,South,179,0.0,1.0,65,0.00,,,0.00,meteohub,2013-10-13 10:32:00,
2013-10-13 04:37:00,37.9,26.8,30.10,SE,135,1.0,2.0,64,0.00,,,0.00,meteohub,2013-10-13 10:37:00,
2013-10-13 04:42:00,38.7,27.1,30.10,ESE,111,0.0,3.0,63,0.00,,,0.00,meteohub,2013-10-13 10:42:00,
2013-10-13 04:47:00,39.2,27.7,30.11,SE,124,3.0,3.0,63,0.00,,,0.00,meteohub,2013-10-13 10:47:00,
2013-10-13 04:52:00,39.4,27.5,30.11,South,191,5.0,6.0,62,0.00,,,0.00,meteohub,2013-10-13 10:52:00,
2013-10-13 04:57:00,39.6,28.0,30.11,SE,146,0.0,10.0,63,0.00,,,0.00,meteohub,2013-10-13 10:57:00,
2013-10-13 05:02:00,39.4,27.9,30.10,SE,138,0.0,10.0,63,0.00,,,0.00,meteohub,2013-10-13 11:02:00,
2013-10-13 05:07:00,39.6,28.0,30.11,SE,133,0.0,10.0,63,0.00,,,0.00,meteohub,2013-10-13 11:07:00,
2013-10-13 05:12:00,39.4,28.2,30.10,SSE,159,1.0,3.0,64,0.00,,,0.00,meteohub,2013-10-13 11:12:00,
2013-10-13 05:17:00,39.4,28.2,30.10,SSE,153,1.0,3.0,64,0.00,,,0.00,meteohub,2013-10-13 11:17:00,
2013-10-13 05:22:00,39.4,28.2,30.10,SE,130,1.0,2.0,64,0.00,,,0.00,meteohub,2013-10-13 11:22:00,
2013-10-13 05:28:00,39.6,28.4,30.10,SSE,155,3.0,3.0,64,0.00,,,0.00,meteohub,2013-10-13 11:28:00,
2013-10-13 05:33:00,39.7,28.6,30.10,South,186,0.0,6.0,64,0.00,,,0.00,meteohub,2013-10-13 11:33:00,
2013-10-13 05:38:00,39.7,28.9,30.10,SE,139,4.0,6.0,65,0.00,,,0.00,meteohub,2013-10-13 11:38:00,
2013-10-13 05:43:00,39.9,29.1,30.10,SSE,159,2.0,6.0,65,0.00,,,0.00,meteohub,2013-10-13 11:43:00,
2013-10-13 05:48:00,40.1,29.3,30.10,SSE,153,4.0,11.0,65,0.00,,,0.00,meteohub,2013-10-13 11:48:00,
2013-10-13 05:53:00,40.3,29.1,30.10,SSW,194,5.0,12.0,64,0.00,,,0.00,meteohub,2013-10-13 11:53:00,
2013-10-13 05:58:00,40.3,29.1,30.10,SSE,156,5.0,12.0,64,0.00,,,0.00,meteohub,2013-10-13 11:58:00,
2013-10-13 06:03:00,40.3,29.5,30.10,SSE,162,5.0,12.0,65,0.00,,,0.00,meteohub,2013-10-13 12:03:00,
2013-10-13 06:08:00,40.3,29.8,30.09,SSE,165,8.0,9.0,66,0.00,,,0.00,meteohub,2013-10-13 12:08:00,
2013-10-13 06:13:00,40.3,29.5,30.09,SE,145,4.0,13.0,65,0.00,,,0.00,meteohub,2013-10-13 12:13:00,
2013-10-13 06:18:00,40.3,29.8,30.09,SE,129,5.0,13.0,66,0.00,,,0.00,meteohub,2013-10-13 12:18:00,
2013-10-13 06:23:00,40.5,30.0,30.09,South,183,6.0,13.0,66,0.00,,,0.00,meteohub,2013-10-13 12:23:00,
2013-10-13 06:28:00,40.5,30.0,30.09,SE,143,6.0,13.0,66,0.00,,,0.00,meteohub,2013-10-13 12:28:00,
2013-10-13 06:33:00,41.2,30.4,30.09,SSE,156,3.0,13.0,65,0.00,,,0.00,meteohub,2013-10-13 12:33:00,
2013-10-13 06:38:00,41.0,30.2,30.09,SSE,152,6.0,14.0,65,0.00,,,0.00,meteohub,2013-10-13 12:38:00,
2013-10-13 06:43:00,40.8,30.0,30.09,SSW,193,10.0,14.0,65,0.00,,,0.00,meteohub,2013-10-13 12:43:00,
2013-10-13 06:48:00,40.5,30.0,30.09,SW,214,6.0,14.0,66,0.00,,,0.00,meteohub,2013-10-13 12:48:00,
2013-10-13 06:54:00,40.3,30.2,30.09,South,180,6.0,11.0,67,0.00,,,0.00,meteohub,2013-10-13 12:54:00,
2013-10-13 06:59:00,40.1,30.0,30.09,SSW,193,5.0,11.0,67,0.00,,,0.00,meteohub,2013-10-13 12:59:00,
2013-10-13 07:04:00,40.5,30.4,30.09,SSE,162,7.0,10.0,67,0.00,,,0.00,meteohub,2013-10-13 13:04:00,
2013-10-13 07:09:00,40.5,30.0,30.09,SSW,193,2.0,11.0,66,0.00,,,0.00,meteohub,2013-10-13 13:09:00,
2013-10-13 07:14:00,40.6,30.2,30.08,South,169,6.0,11.0,66,0.00,,,0.00,meteohub,2013-10-13 13:14:00,
2013-10-13 07:19:00,40.6,30.2,30.09,SSE,168,5.0,11.0,66,0.00,,,0.00,meteohub,2013-10-13 13:19:00,
2013-10-13 07:24:00,40.6,30.2,30.08,SE,132,5.0,8.0,66,0.00,,,0.00,meteohub,2013-10-13 13:24:00,
2013-10-13 07:29:00,41.4,30.6,30.08,SSE,159,10.0,15.0,65,0.00,,,0.00,meteohub,2013-10-13 13:29:00,
2013-10-13 07:34:00,41.5,30.2,30.09,West,267,4.0,15.0,64,0.00,,,0.00,meteohub,2013-10-13 13:34:00,
2013-10-13 07:39:00,41.2,30.4,30.09,South,170,5.0,15.0,65,0.00,,,0.00,meteohub,2013-10-13 13:39:00,
2013-10-13 07:44:00,41.0,30.2,30.09,SSE,156,5.0,12.0,65,0.00,,,0.00,meteohub,2013-10-13 13:44:00,
2013-10-13 07:49:00,41.5,30.7,30.09,SSE,160,8.0,12.0,65,0.00,,,0.00,meteohub,2013-10-13 13:49:00,
2013-10-13 07:54:00,42.1,30.7,30.09,SSE,150,5.0,10.0,64,0.00,,,0.00,meteohub,2013-10-13 13:54:00,
2013-10-13 07:59:00,42.6,30.9,30.08,SSE,150,4.0,10.0,63,0.00,,,0.00,meteohub,2013-10-13 13:59:00,
2013-10-13 08:04:00,43.2,31.1,30.08,SSE,149,2.0,10.0,62,0.00,,,0.00,meteohub,2013-10-13 14:04:00,
2013-10-13 08:09:00,43.7,31.1,30.08,SE,135,5.0,10.0,61,0.00,,,0.00,meteohub,2013-10-13 14:09:00,
2013-10-13 08:14:00,43.9,31.3,30.08,SE,146,2.0,8.0,61,0.00,,,0.00,meteohub,2013-10-13 14:14:00,
2013-10-13 08:20:00,43.9,31.3,30.08,SE,139,5.0,7.0,61,0.00,,,0.00,meteohub,2013-10-13 14:20:00,
2013-10-13 08:25:00,44.2,31.3,30.08,SE,146,5.0,7.0,60,0.00,,,0.00,meteohub,2013-10-13 14:25:00,
2013-10-13 08:30:00,44.8,31.8,30.07,SE,134,7.0,7.0,60,0.00,,,0.00,meteohub,2013-10-13 14:30:00,
2013-10-13 08:35:00,45.1,31.6,30.07,SSE,163,9.0,9.0,59,0.00,,,0.00,meteohub,2013-10-13 14:35:00,
2013-10-13 08:40:00,45.3,31.8,30.07,SE,133,6.0,12.0,59,0.00,,,0.00,meteohub,2013-10-13 14:40:00,
2013-10-13 08:45:00,45.7,31.8,30.07,ESE,113,8.0,12.0,58,0.00,,,0.00,meteohub,2013-10-13 14:45:00,
2013-10-13 08:50:00,45.7,31.8,30.07,ESE,111,3.0,10.0,58,0.00,,,0.00,meteohub,2013-10-13 14:50:00,
2013-10-13 08:55:00,45.7,31.8,30.07,SE,146,9.0,13.0,58,0.00,,,0.00,meteohub,2013-10-13 14:55:00,
2013-10-13 09:00:00,45.9,31.5,30.07,SE,128,6.0,13.0,57,0.00,,,0.00,meteohub,2013-10-13 15:00:00,
2013-10-13 09:05:00,46.0,31.6,30.06,SE,144,5.0,13.0,57,0.00,,,0.00,meteohub,2013-10-13 15:05:00,
2013-10-13 09:10:00,46.4,32.0,30.06,ESE,111,5.0,10.0,57,0.00,,,0.00,meteohub,2013-10-13 15:10:00,
2013-10-13 09:15:00,46.8,32.4,30.06,SE,139,10.0,10.0,57,0.00,,,0.00,meteohub,2013-10-13 15:15:00,
2013-10-13 09:20:00,47.1,32.2,30.06,SE,144,5.0,10.0,56,0.00,,,0.00,meteohub,2013-10-13 15:20:00,
2013-10-13 09:25:00,47.3,32.4,30.06,SSE,151,7.0,12.0,56,0.00,,,0.00,meteohub,2013-10-13 15:25:00,
2013-10-13 09:30:00,47.5,32.5,30.05,SE,132,6.0,13.0,56,0.00,,,0.00,meteohub,2013-10-13 15:30:00,
2013-10-13 09:35:00,47.7,32.4,30.05,SE,139,6.0,13.0,55,0.00,,,0.00,meteohub,2013-10-13 15:35:00,
2013-10-13 09:40:00,48.2,32.4,30.05,SE,144,5.0,14.0,54,0.00,,,0.00,meteohub,2013-10-13 15:40:00,
2013-10-13 09:46:00,48.4,32.9,30.04,SE,127,13.0,14.0,55,0.00,,,0.00,meteohub,2013-10-13 15:46:00,
2013-10-13 09:51:00,48.4,32.9,30.04,SSE,150,6.0,15.0,55,0.00,,,0.00,meteohub,2013-10-13 15:51:00,
2013-10-13 09:56:00,49.3,33.3,30.04,ESE,117,9.0,20.0,54,0.00,,,0.00,meteohub,2013-10-13 15:56:00,
2013-10-13 10:01:00,49.8,32.9,30.03,South,169,19.0,22.0,52,0.00,,,0.00,meteohub,2013-10-13 16:01:00,
2013-10-13 10:06:00,50.0,32.5,30.03,ESE,119,20.0,22.0,51,0.00,,,0.00,meteohub,2013-10-13 16:06:00,
2013-10-13 10:11:00,50.2,32.2,30.02,SE,131,13.0,23.0,50,0.00,,,0.00,meteohub,2013-10-13 16:11:00,
2013-10-13 10:16:00,50.4,32.0,30.02,SSE,162,13.0,24.0,49,0.00,,,0.00,meteohub,2013-10-13 16:16:00,
2013-10-13 10:21:00,50.4,32.4,30.02,South,174,13.0,24.0,50,0.00,,,0.00,meteohub,2013-10-13 16:21:00,
2013-10-13 10:26:00,50.4,32.4,30.02,South,180,15.0,24.0,50,0.00,,,0.00,meteohub,2013-10-13 16:26:00,
2013-10-13 10:31:00,50.7,32.2,30.02,SSE,153,9.0,26.0,49,0.00,,,0.00,meteohub,2013-10-13 16:31:00,
2013-10-13 10:36:00,51.1,32.5,30.02,South,191,10.0,26.0,49,0.00,,,0.00,meteohub,2013-10-13 16:36:00,
2013-10-13 10:41:00,51.4,32.9,30.02,South,170,6.0,26.0,49,0.00,,,0.00,meteohub,2013-10-13 16:41:00,
2013-10-13 10:46:00,51.6,32.5,30.01,SSE,147,6.0,26.0,48,0.00,,,0.00,meteohub,2013-10-13 16:46:00,
2013-10-13 10:51:00,51.6,32.5,30.01,SE,141,10.0,26.0,48,0.00,,,0.00,meteohub,2013-10-13 16:51:00,
2013-10-13 10:56:00,52.2,32.5,30.01,South,188,14.0,26.0,47,0.00,,,0.00,meteohub,2013-10-13 16:56:00,
2013-10-13 11:01:00,52.3,32.7,30.01,ESE,115,16.0,26.0,47,0.00,,,0.00,meteohub,2013-10-13 17:01:00,
2013-10-13 11:07:00,52.3,32.2,30.00,SSE,165,22.0,24.0,46,0.00,,,0.00,meteohub,2013-10-13 17:07:00,
2013-10-13 11:12:00,53.1,32.4,30.00,SSW,201,14.0,24.0,45,0.00,,,0.00,meteohub,2013-10-13 17:12:00,
2013-10-13 11:17:00,53.1,32.4,29.99,SE,125,18.0,25.0,45,0.00,,,0.00,meteohub,2013-10-13 17:17:00,
2013-10-13 11:22:00,52.9,32.2,29.99,South,169,10.0,30.0,45,0.00,,,0.00,meteohub,2013-10-13 17:22:00,
2013-10-13 11:27:00,52.5,32.4,29.99,ENE,78,12.0,30.0,46,0.00,,,0.00,meteohub,2013-10-13 17:27:00,
2013-10-13 11:32:00,53.2,33.1,29.99,ESE,123,6.0,30.0,46,0.00,,,0.00,meteohub,2013-10-13 17:32:00,
2013-10-13 11:37:00,53.6,32.7,29.98,SSE,150,12.0,29.0,45,0.00,,,0.00,meteohub,2013-10-13 17:37:00,
2013-10-13 11:42:00,53.6,32.7,29.98,ENE,69,12.0,29.0,45,0.00,,,0.00,meteohub,2013-10-13 17:42:00,
2013-10-13 11:47:00,53.8,32.9,29.98,South,170,12.0,27.0,45,0.00,,,0.00,meteohub,2013-10-13 17:47:00,
2013-10-13 11:52:00,54.3,32.9,29.97,SSE,163,14.0,27.0,44,0.00,,,0.00,meteohub,2013-10-13 17:52:00,
2013-10-13 11:57:00,54.3,32.9,29.97,SSE,149,12.0,27.0,44,0.00,,,0.00,meteohub,2013-10-13 17:57:00,
2013-10-13 12:02:00,54.1,32.7,29.97,SSE,159,15.0,27.0,44,0.00,,,0.00,meteohub,2013-10-13 18:02:00,
2013-10-13 12:07:00,54.1,33.3,29.97,NNE,14,6.0,26.0,45,0.00,,,0.00,meteohub,2013-10-13 18:07:00,
2013-10-13 12:12:00,53.8,32.4,29.97,SSE,148,20.0,27.0,44,0.00,,,0.00,meteohub,2013-10-13 18:12:00,
2013-10-13 12:17:00,54.1,32.7,29.97,SE,146,19.0,27.0,44,0.00,,,0.00,meteohub,2013-10-13 18:17:00,
2013-10-13 12:22:00,54.3,32.9,29.96,South,170,18.0,27.0,44,0.00,,,0.00,meteohub,2013-10-13 18:22:00,
2013-10-13 12:27:00,55.0,32.4,29.96,South,169,10.0,26.0,42,0.00,,,0.00,meteohub,2013-10-13 18:27:00,
2013-10-13 12:32:00,55.8,33.1,29.96,SSE,149,8.0,29.0,42,0.00,,,0.00,meteohub,2013-10-13 18:32:00,
2013-10-13 12:37:00,55.8,32.4,29.95,South,172,12.0,29.0,41,0.00,,,0.00,meteohub,2013-10-13 18:37:00,
2013-10-13 12:42:00,55.8,31.8,29.94,SSE,151,13.0,29.0,40,0.00,,,0.00,meteohub,2013-10-13 18:42:00,
2013-10-13 12:47:00,55.4,31.5,29.94,SSE,167,19.0,29.0,40,0.00,,,0.00,meteohub,2013-10-13 18:47:00,
2013-10-13 12:52:00,54.7,32.0,29.94,South,186,8.0,29.0,42,0.00,,,0.00,meteohub,2013-10-13 18:52:00,
2013-10-13 12:57:00,55.8,31.8,29.93,ESE,111,24.0,29.0,40,0.00,,,0.00,meteohub,2013-10-13 18:57:00,
2013-10-13 13:02:00,55.8,31.1,29.92,SE,134,7.0,31.0,39,0.00,,,0.00,meteohub,2013-10-13 19:02:00,
2013-10-13 13:07:00,55.8,31.1,29.91,SE,138,16.0,31.0,39,0.00,,,0.00,meteohub,2013-10-13 19:07:00,
2013-10-13 13:12:00,55.4,30.9,29.91,SSE,152,11.0,31.0,39,0.00,,,0.00,meteohub,2013-10-13 19:12:00,
2013-10-13 13:17:00,55.9,31.3,29.91,ESE,115,17.0,29.0,39,0.00,,,0.00,meteohub,2013-10-13 19:17:00,
2013-10-13 13:22:00,55.6,30.4,29.91,SSE,152,17.0,28.0,38,0.00,,,0.00,meteohub,2013-10-13 19:22:00,
2013-10-13 13:27:00,55.8,29.1,29.89,SE,146,20.0,26.0,36,0.00,,,0.00,meteohub,2013-10-13 19:27:00,
2013-10-13 13:32:00,56.7,29.3,29.90,SSE,149,12.0,30.0,35,0.00,,,0.00,meteohub,2013-10-13 19:32:00,
2013-10-13 13:37:00,56.1,29.5,29.90,South,179,13.0,30.0,36,0.00,,,0.00,meteohub,2013-10-13 19:37:00,
2013-10-13 13:42:00,56.1,28.8,29.89,South,186,15.0,30.0,35,0.00,,,0.00,meteohub,2013-10-13 19:42:00,
2013-10-13 13:47:00,56.7,28.6,29.89,SSW,212,22.0,28.0,34,0.00,,,0.00,meteohub,2013-10-13 19:47:00,
2013-10-13 13:52:00,57.0,28.2,29.89,North,352,23.0,28.0,33,0.00,,,0.00,meteohub,2013-10-13 19:52:00,
2013-10-13 13:57:00,57.0,28.2,29.89,WSW,256,21.0,26.0,33,0.00,,,0.00,meteohub,2013-10-13 19:57:00,
2013-10-13 14:02:00,57.4,27.7,29.88,South,173,13.0,29.0,32,0.00,,,0.00,meteohub,2013-10-13 20:02:00,
2013-10-13 14:07:00,57.6,27.1,29.88,SE,144,15.0,32.0,31,0.00,,,0.00,meteohub,2013-10-13 20:07:00,
2013-10-13 14:12:00,56.8,28.0,29.88,SSE,153,10.0,32.0,33,0.00,,,0.00,meteohub,2013-10-13 20:12:00,
2013-10-13 14:17:00,56.5,27.0,29.87,South,174,28.0,32.0,32,0.00,,,0.00,meteohub,2013-10-13 20:17:00,
2013-10-13 14:22:00,56.8,28.0,29.88,SW,225,12.0,29.0,33,0.00,,,0.00,meteohub,2013-10-13 20:22:00,
2013-10-13 14:27:00,57.2,27.7,29.87,SSW,193,20.0,28.0,32,0.00,,,0.00,meteohub,2013-10-13 20:27:00,
2013-10-13 14:32:00,57.6,27.9,29.87,SE,134,15.0,29.0,32,0.00,,,0.00,meteohub,2013-10-13 20:32:00,
2013-10-13 14:37:00,57.9,27.5,29.87,South,173,25.0,29.0,31,0.00,,,0.00,meteohub,2013-10-13 20:37:00,
2013-10-13 14:42:00,58.5,27.9,29.87,SSE,155,27.0,29.0,31,0.00,,,0.00,meteohub,2013-10-13 20:42:00,
2013-10-13 14:47:00,58.3,27.9,29.87,South,179,17.0,26.0,31,0.00,,,0.00,meteohub,2013-10-13 20:47:00,
2013-10-13 14:52:00,57.6,27.1,29.87,SW,221,12.0,27.0,31,0.00,,,0.00,meteohub,2013-10-13 20:52:00,
2013-10-13 14:58:00,56.8,27.3,29.86,SSW,200,14.0,27.0,32,0.00,,,0.00,meteohub,2013-10-13 20:58:00,
2013-10-13 15:03:00,56.7,27.9,29.87,South,190,7.0,24.0,33,0.00,,,0.00,meteohub,2013-10-13 21:03:00,
2013-10-13 15:08:00,57.2,28.4,29.86,SE,141,8.0,23.0,33,0.00,,,0.00,meteohub,2013-10-13 21:08:00,
2013-10-13 15:13:00,57.0,27.5,29.86,South,190,10.0,23.0,32,0.00,,,0.00,meteohub,2013-10-13 21:13:00,
2013-10-13 15:18:00,57.6,27.9,29.85,SW,231,12.0,26.0,32,0.00,,,0.00,meteohub,2013-10-13 21:18:00,
2013-10-13 15:23:00,57.6,27.9,29.85,South,184,12.0,26.0,32,0.00,,,0.00,meteohub,2013-10-13 21:23:00,
2013-10-13 15:28:00,57.2,28.4,29.85,South,181,9.0,26.0,33,0.00,,,0.00,meteohub,2013-10-13 21:28:00,
2013-10-13 15:33:00,57.0,28.2,29.85,SSE,152,16.0,24.0,33,0.00,,,0.00,meteohub,2013-10-13 21:33:00,
2013-10-13 15:38:00,56.7,27.9,29.85,South,183,14.0,24.0,33,0.00,,,0.00,meteohub,2013-10-13 21:38:00,
2013-10-13 15:43:00,56.5,28.4,29.84,SSE,159,12.0,24.0,34,0.00,,,0.00,meteohub,2013-10-13 21:43:00,
2013-10-13 15:48:00,56.5,28.4,29.84,ESE,120,3.0,24.0,34,0.00,,,0.00,meteohub,2013-10-13 21:48:00,
2013-10-13 15:53:00,57.0,28.2,29.83,SE,131,9.0,22.0,33,0.00,,,0.00,meteohub,2013-10-13 21:53:00,
2013-10-13 15:58:00,57.7,28.0,29.83,SSE,152,7.0,19.0,32,0.00,,,0.00,meteohub,2013-10-13 21:58:00,
2013-10-13 16:03:00,58.3,27.9,29.83,SSE,159,6.0,18.0,31,0.00,,,0.00,meteohub,2013-10-13 22:03:00,
2013-10-13 16:08:00,57.9,27.5,29.83,SE,146,8.0,20.0,31,0.00,,,0.00,meteohub,2013-10-13 22:08:00,
2013-10-13 16:13:00,57.6,27.9,29.83,SSW,200,17.0,25.0,32,0.00,,,0.00,meteohub,2013-10-13 22:13:00,
2013-10-13 16:19:00,56.8,28.0,29.83,SW,214,10.0,25.0,33,0.00,,,0.00,meteohub,2013-10-13 22:19:00,
2013-10-13 16:24:00,56.5,28.4,29.83,South,176,8.0,25.0,34,0.00,,,0.00,meteohub,2013-10-13 22:24:00,
2013-10-13 16:29:00,56.1,28.8,29.82,NNW,342,3.0,24.0,35,0.00,,,0.00,meteohub,2013-10-13 22:29:00,
2013-10-13 16:34:00,55.8,29.1,29.83,South,179,8.0,22.0,36,0.00,,,0.00,meteohub,2013-10-13 22:34:00,
2013-10-13 16:39:00,55.4,29.5,29.83,SE,142,7.0,22.0,37,0.00,,,0.00,meteohub,2013-10-13 22:39:00,
2013-10-13 16:44:00,55.2,29.5,29.83,SSE,160,2.0,22.0,37,0.00,,,0.00,meteohub,2013-10-13 22:44:00,
2013-10-13 16:49:00,55.2,29.5,29.83,SW,232,1.0,17.0,37,0.00,,,0.00,meteohub,2013-10-13 22:49:00,
2013-10-13 16:54:00,55.2,29.5,29.84,WNW,290,5.0,16.0,37,0.00,,,0.00,meteohub,2013-10-13 22:54:00,
2013-10-13 16:59:00,55.0,30.6,29.83,NW,305,3.0,14.0,39,0.00,,,0.00,meteohub,2013-10-13 22:59:00,
2013-10-13 17:04:00,54.1,30.9,29.84,WSW,249,7.0,11.0,41,0.00,,,0.00,meteohub,2013-10-13 23:04:00,
2013-10-13 17:09:00,53.6,31.1,29.84,SW,229,4.0,13.0,42,0.00,,,0.00,meteohub,2013-10-13 23:09:00,
2013-10-13 17:14:00,53.4,31.5,29.84,SW,233,0.0,13.0,43,0.00,,,0.00,meteohub,2013-10-13 23:14:00,
2013-10-13 17:19:00,53.2,30.2,29.84,WSW,253,6.0,13.0,41,0.00,,,0.00,meteohub,2013-10-13 23:19:00,
2013-10-13 17:24:00,53.4,30.4,29.83,WSW,250,2.0,9.0,41,0.00,,,0.00,meteohub,2013-10-13 23:24:00,
2013-10-13 17:29:00,53.2,30.7,29.83,SSE,160,13.0,13.0,42,0.00,,,0.00,meteohub,2013-10-13 23:29:00,
2013-10-13 17:35:00,53.4,29.7,29.83,WSW,248,1.0,9.0,40,0.00,,,0.00,meteohub,2013-10-13 23:35:00,
2013-10-13 17:40:00,53.4,30.4,29.83,WSW,257,6.0,13.0,41,0.00,,,0.00,meteohub,2013-10-13 23:40:00,
2013-10-13 17:45:00,53.2,30.7,29.83,NW,307,2.0,13.0,42,0.00,,,0.00,meteohub,2013-10-13 23:45:00,
2013-10-13 17:50:00,53.1,31.1,29.83,WNW,297,5.0,10.0,43,0.00,,,0.00,meteohub,2013-10-13 23:50:00,
2013-10-13 17:55:00,52.2,32.0,29.83,WNW,292,8.0,11.0,46,0.00,,,0.00,meteohub,2013-10-13 23:55:00,
2013-10-13 18:00:00,51.3,32.7,29.83,WNW,288,7.0,17.0,49,0.00,,,0.00,meteohub,2013-10-14 00:00:00,
2013-10-13 18:05:00,50.5,32.5,29.84,West,278,2.0,17.0,50,0.00,,,0.00,meteohub,2013-10-14 00:05:00,
2013-10-13 18:10:00,50.4,32.9,29.85,SSE,155,2.0,14.0,51,0.00,,,0.00,meteohub,2013-10-14 00:10:00,
2013-10-13 18:15:00,50.9,31.8,29.84,ESE,107,6.0,14.0,48,0.00,,,0.00,meteohub,2013-10-14 00:15:00,
2013-10-13 18:20:00,51.1,32.5,29.84,SW,235,2.0,22.0,49,0.00,,,0.00,meteohub,2013-10-14 00:20:00,
2013-10-13 18:25:00,51.3,31.6,29.83,SE,144,3.0,22.0,47,0.00,,,0.00,meteohub,2013-10-14 00:25:00,
2013-10-13 18:30:00,51.3,31.1,29.83,SW,228,0.0,9.0,46,0.00,,,0.00,meteohub,2013-10-14 00:30:00,
2013-10-13 18:35:00,51.4,31.3,29.83,SW,218,5.0,5.0,46,0.00,,,0.00,meteohub,2013-10-14 00:35:00,
2013-10-13 18:41:00,51.4,31.8,29.84,WSW,248,3.0,6.0,47,0.00,,,0.00,meteohub,2013-10-14 00:41:00,
2013-10-13 18:46:00,51.3,31.6,29.85,West,260,3.0,6.0,47,0.00,,,0.00,meteohub,2013-10-14 00:46:00,
2013-10-13 18:51:00,51.1,32.5,29.85,SW,229,0.0,6.0,49,0.00,,,0.00,meteohub,2013-10-14 00:51:00,
2013-10-13 18:56:00,50.7,33.3,29.85,East,101,3.0,5.0,51,0.00,,,0.00,meteohub,2013-10-14 00:56:00,
2013-10-13 19:01:00,50.5,33.6,29.84,ESE,105,5.0,6.0,52,0.00,,,0.00,meteohub,2013-10-14 01:01:00,
2013-10-13 19:06:00,49.6,34.5,29.84,ESE,110,3.0,8.0,56,0.00,,,0.00,meteohub,2013-10-14 01:06:00,
2013-10-13 19:11:00,49.3,34.7,29.84,ESE,120,3.0,8.0,57,0.00,,,0.00,meteohub,2013-10-14 01:11:00,
2013-10-13 19:16:00,48.9,34.3,29.83,SE,141,1.0,8.0,57,0.00,,,0.00,meteohub,2013-10-14 01:16:00,
2013-10-13 19:21:00,48.7,34.7,29.83,SE,146,0.0,7.0,58,0.00,,,0.00,meteohub,2013-10-14 01:21:00,
2013-10-13 19:26:00,48.7,34.7,29.83,South,190,3.0,6.0,58,0.00,,,0.00,meteohub,2013-10-14 01:26:00,
2013-10-13 19:31:00,48.7,34.2,29.84,WSW,237,2.0,4.0,57,0.00,,,0.00,meteohub,2013-10-14 01:31:00,
2013-10-13 19:36:00,48.9,34.0,29.84,WSW,245,1.0,3.0,56,0.00,,,0.00,meteohub,2013-10-14 01:36:00,
2013-10-13 19:41:00,48.9,34.3,29.83,SW,233,0.0,3.0,57,0.00,,,0.00,meteohub,2013-10-14 01:41:00,
2013-10-13 19:46:00,48.6,35.8,29.83,SW,226,0.0,3.0,61,0.00,,,0.00,meteohub,2013-10-14 01:46:00,
2013-10-13 19:52:00,48.7,33.8,29.83,SSW,212,6.0,6.0,56,0.00,,,0.00,meteohub,2013-10-14 01:52:00,
2013-10-13 19:57:00,49.6,32.7,29.82,NE,38,2.0,8.0,52,0.00,,,0.00,meteohub,2013-10-14 01:57:00,
2013-10-13 20:02:00,50.0,32.2,29.82,SE,139,3.0,9.0,50,0.00,,,0.00,meteohub,2013-10-14 02:02:00,
2013-10-13 20:07:00,50.4,32.4,29.83,SSE,162,4.0,10.0,50,0.00,,,0.00,meteohub,2013-10-14 02:07:00,
2013-10-13 20:12:00,50.0,33.6,29.83,WSW,249,3.0,10.0,53,0.00,,,0.00,meteohub,2013-10-14 02:12:00,
2013-10-13 20:17:00,49.6,33.3,29.83,SW,221,2.0,10.0,53,0.00,,,0.00,meteohub,2013-10-14 02:17:00,
2013-10-13 20:22:00,49.6,33.3,29.83,South,174,3.0,7.0,53,0.00,,,0.00,meteohub,2013-10-14 02:22:00,
2013-10-13 20:27:00,49.6,33.3,29.83,South,174,3.0,5.0,53,0.00,,,0.00,meteohub,2013-10-14 02:27:00,
2013-10-13 20:32:00,49.6,33.3,29.82,SSE,162,0.0,5.0,53,0.00,,,0.00,meteohub,2013-10-14 02:32:00,
2013-10-13 20:37:00,49.5,33.4,29.82,SSW,210,4.0,6.0,54,0.00,,,0.00,meteohub,2013-10-14 02:37:00,
2013-10-13 20:42:00,49.1,34.2,29.82,SSE,155,2.0,6.0,56,0.00,,,0.00,meteohub,2013-10-14 02:42:00,
2013-10-13 20:47:00,48.7,34.7,29.82,SW,218,5.0,8.0,58,0.00,,,0.00,meteohub,2013-10-14 02:47:00,
2013-10-13 20:52:00,48.4,35.1,29.82,SE,133,4.0,8.0,60,0.00,,,0.00,meteohub,2013-10-14 02:52:00,
2013-10-13 20:57:00,47.8,35.1,29.83,SSE,157,4.0,9.0,61,0.00,,,0.00,meteohub,2013-10-14 02:57:00,
2013-10-13 21:02:00,47.5,35.6,29.83,SSW,195,7.0,9.0,63,0.00,,,0.00,meteohub,2013-10-14 03:02:00,
2013-10-13 21:07:00,47.3,35.4,29.83,SSE,166,3.0,9.0,63,0.00,,,0.00,meteohub,2013-10-14 03:07:00,
2013-10-13 21:12:00,47.1,35.6,29.83,SSE,165,4.0,11.0,64,0.00,,,0.00,meteohub,2013-10-14 03:12:00,
2013-10-13 21:17:00,47.1,35.6,29.83,SSE,158,3.0,11.0,64,0.00,,,0.00,meteohub,2013-10-14 03:17:00,
2013-10-13 21:22:00,47.1,35.2,29.83,SE,131,2.0,11.0,63,0.00,,,0.00,meteohub,2013-10-14 03:22:00,
2013-10-13 21:27:00,47.5,35.6,29.82,SSE,156,3.0,12.0,63,0.00,,,0.00,meteohub,2013-10-14 03:27:00,
2013-10-13 21:32:00,47.5,36.0,29.83,SE,143,5.0,12.0,64,0.00,,,0.00,meteohub,2013-10-14 03:32:00,
2013-10-13 21:37:00,47.3,35.8,29.82,SW,221,5.0,11.0,64,0.00,,,0.00,meteohub,2013-10-14 03:37:00,
2013-10-13 21:42:00,47.1,35.6,29.82,SSE,150,7.0,10.0,64,0.00,,,0.00,meteohub,2013-10-14 03:42:00,
2013-10-13 21:47:00,46.9,35.8,29.82,South,172,8.0,10.0,65,0.00,,,0.00,meteohub,2013-10-14 03:47:00,
2013-10-13 21:52:00,46.8,35.6,29.82,SSE,153,5.0,11.0,65,0.00,,,0.00,meteohub,2013-10-14 03:52:00,
2013-10-13 21:57:00,46.8,35.6,29.81,East,86,2.0,11.0,65,0.00,,,0.00,meteohub,2013-10-14 03:57:00,
2013-10-13 22:01:00,46.6,35.4,29.81,SE,140,9.0,11.0,65,0.00,,,0.00,meteohub,2013-10-14 04:01:00,
2013-10-13 22:02:00,46.6,35.4,29.81,South,173,7.0,11.0,65,0.00,,,0.00,meteohub,2013-10-14 04:02:00,
2013-10-13 22:05:00,46.6,35.4,29.81,SE,128,7.0,11.0,65,0.00,,,0.00,meteohub,2013-10-14 04:05:00,
2013-10-13 22:10:00,46.4,35.2,29.81,SW,233,5.0,13.0,65,0.00,,,0.00,meteohub,2013-10-14 04:10:00,
2013-10-13 22:12:00,46.2,35.4,29.81,South,178,8.0,13.0,66,0.00,,,0.00,meteohub,2013-10-14 04:12:00,
2013-10-13 22:17:00,46.2,35.4,29.81,South,174,7.0,12.0,66,0.00,,,0.00,meteohub,2013-10-14 04:17:00,
2013-10-13 22:22:00,46.2,35.4,29.81,SW,219,6.0,13.0,66,0.00,,,0.00,meteohub,2013-10-14 04:22:00,
2013-10-13 22:27:00,46.0,35.8,29.81,SSW,203,6.0,13.0,67,0.00,,,0.00,meteohub,2013-10-14 04:27:00,
2013-10-13 22:32:00,45.7,35.8,29.81,South,169,7.0,13.0,68,0.00,,,0.00,meteohub,2013-10-14 04:32:00,
2013-10-13 22:37:00,45.1,35.6,29.80,SE,142,4.0,12.0,69,0.00,,,0.00,meteohub,2013-10-14 04:37:00,
2013-10-13 22:42:00,45.0,35.8,29.80,SSE,160,4.0,12.0,70,0.00,,,0.00,meteohub,2013-10-14 04:42:00,
2013-10-13 22:47:00,44.8,36.0,29.80,SSW,204,3.0,12.0,71,0.00,,,0.00,meteohub,2013-10-14 04:47:00,
2013-10-13 22:52:00,44.4,35.6,29.80,SSE,150,4.0,12.0,71,0.00,,,0.00,meteohub,2013-10-14 04:52:00,
2013-10-13 22:57:00,44.1,35.6,29.80,SSE,163,8.0,12.0,72,0.00,,,0.00,meteohub,2013-10-14 04:57:00,
2013-10-13 23:02:00,44.1,35.6,29.79,SE,146,8.0,12.0,72,0.00,,,0.00,meteohub,2013-10-14 05:02:00,
2013-10-13 23:07:00,44.1,36.0,29.79,SW,217,12.0,15.0,73,0.00,,,0.00,meteohub,2013-10-14 05:07:00,
2013-10-13 23:12:00,44.4,36.0,29.79,WSW,250,4.0,15.0,72,0.00,,,0.00,meteohub,2013-10-14 05:12:00,
2013-10-13 23:18:00,44.4,35.6,29.79,ESE,110,10.0,19.0,71,0.00,,,0.00,meteohub,2013-10-14 05:18:00,
2013-10-13 23:23:00,44.4,35.6,29.79,SW,214,9.0,19.0,71,0.00,,,0.00,meteohub,2013-10-14 05:23:00,
2013-10-13 23:28:00,44.4,35.6,29.79,NNW,338,7.0,19.0,71,0.00,,,0.00,meteohub,2013-10-14 05:28:00,
2013-10-13 23:33:00,44.2,35.4,29.79,SSE,158,5.0,15.0,71,0.00,,,0.00,meteohub,2013-10-14 05:33:00,
2013-10-13 23:38:00,43.9,35.1,29.79,South,184,9.0,14.0,71,0.00,,,0.00,meteohub,2013-10-14 05:38:00,
2013-10-13 23:43:00,43.9,35.1,29.79,West,267,8.0,15.0,71,0.00,,,0.00,meteohub,2013-10-14 05:43:00,
2013-10-13 23:48:00,43.9,35.1,29.79,NE,50,10.0,15.0,71,0.00,,,0.00,meteohub,2013-10-14 05:48:00,
2013-10-13 23:53:00,43.9,35.1,29.79,South,176,7.0,15.0,71,0.00,,,0.00,meteohub,2013-10-14 05:53:00,
2013-10-13 23:58:00,44.1,35.2,29.78,NNE,22,12.0,15.0,71,0.00,,,0.00,meteohub,2013-10-14 05:58:00,